sensor_id;sensor_type;location;lat;lon;timestamp;temperature;humidity
47350;DHT22;33088;51.982;5.872;2022-12-07T00:01:15;3.90;99.90
47350;DHT22;33088;51.982;5.872;2022-12-07T00:03:42;3.80;99.90
47350;DHT22;33088;51.982;5.872;2022-12-07T00:06:10;3.80;99.90
47350;DHT22;33088;51.982;5.872;2022-12-07T00:08:36;3.70;99.90
47350;DHT22;33088;51.982;5.872;2022-12-07T00:13:32;3.60;99.90
47350;DHT22;33088;51.982;5.872;2022-12-07T00:16:05;3.50;99.90
47350;DHT22;33088;51.982;5.872;2022-12-07T00:18:31;3.50;99.90
47350;DHT22;33088;51.982;5.872;2022-12-07T00:21:06;3.40;99.90
47350;DHT22;33088;51.982;5.872;2022-12-07T00:23:33;3.40;99.90
47350;DHT22;33088;51.982;5.872;2022-12-07T00:26:12;3.30;99.90
47350;DHT22;33088;51.982;5.872;2022-12-07T00:28:38;3.50;99.90
47350;DHT22;33088;51.982;5.872;2022-12-07T00:31:10;3.30;99.90
47350;DHT22;33088;51.982;5.872;2022-12-07T00:33:36;3.30;99.90
47350;DHT22;33088;51.982;5.872;2022-12-07T00:36:03;3.30;99.90
47350;DHT22;33088;51.982;5.872;2022-12-07T00:38:31;3.30;99.90
47350;DHT22;33088;51.982;5.872;2022-12-07T00:41:00;3.30;99.90
47350;DHT22;33088;51.982;5.872;2022-12-07T00:43:26;3.20;99.90
47350;DHT22;33088;51.982;5.872;2022-12-07T00:45:52;3.20;99.90
47350;DHT22;33088;51.982;5.872;2022-12-07T00:48:18;3.20;99.90
47350;DHT22;33088;51.982;5.872;2022-12-07T00:50:43;3.30;99.90
47350;DHT22;33088;51.982;5.872;2022-12-07T00:53:09;3.30;99.90
47350;DHT22;33088;51.982;5.872;2022-12-07T00:55:35;3.30;99.90
47350;DHT22;33088;51.982;5.872;2022-12-07T00:58:01;3.30;99.90
47350;DHT22;33088;51.982;5.872;2022-12-07T01:00:27;3.20;99.90
47350;DHT22;33088;51.982;5.872;2022-12-07T01:02:53;3.20;99.90
47350;DHT22;33088;51.982;5.872;2022-12-07T01:05:19;3.10;99.90
47350;DHT22;33088;51.982;5.872;2022-12-07T01:07:46;3.10;99.90
47350;DHT22;33088;51.982;5.872;2022-12-07T01:10:13;3.10;99.90
47350;DHT22;33088;51.982;5.872;2022-12-07T01:12:39;3.10;99.90
47350;DHT22;33088;51.982;5.872;2022-12-07T01:15:05;3.00;99.90
47350;DHT22;33088;51.982;5.872;2022-12-07T01:17:31;3.00;99.90
47350;DHT22;33088;51.982;5.872;2022-12-07T01:19:57;2.90;99.90
47350;DHT22;33088;51.982;5.872;2022-12-07T01:22:23;2.90;99.90
47350;DHT22;33088;51.982;5.872;2022-12-07T01:24:48;2.90;99.90
47350;DHT22;33088;51.982;5.872;2022-12-07T01:27:14;2.90;99.90
47350;DHT22;33088;51.982;5.872;2022-12-07T01:29:40;2.90;99.90
47350;DHT22;33088;51.982;5.872;2022-12-07T01:32:06;2.90;99.90
47350;DHT22;33088;51.982;5.872;2022-12-07T01:34:32;2.90;99.90
47350;DHT22;33088;51.982;5.872;2022-12-07T01:36:57;2.90;99.90
47350;DHT22;33088;51.982;5.872;2022-12-07T01:39:23;2.80;99.90
47350;DHT22;33088;51.982;5.872;2022-12-07T01:41:49;2.80;99.90
47350;DHT22;33088;51.982;5.872;2022-12-07T01:44:23;2.80;99.90
47350;DHT22;33088;51.982;5.872;2022-12-07T01:46:51;2.80;99.90
47350;DHT22;33088;51.982;5.872;2022-12-07T01:49:30;2.80;99.90
47350;DHT22;33088;51.982;5.872;2022-12-07T01:52:36;2.80;99.90
47350;DHT22;33088;51.982;5.872;2022-12-07T01:55:06;2.80;99.90
47350;DHT22;33088;51.982;5.872;2022-12-07T01:57:34;2.70;99.90
47350;DHT22;33088;51.982;5.872;2022-12-07T02:00:05;2.70;99.90
47350;DHT22;33088;51.982;5.872;2022-12-07T02:03:09;2.70;99.90
47350;DHT22;33088;51.982;5.872;2022-12-07T02:05:38;2.70;99.90
47350;DHT22;33088;51.982;5.872;2022-12-07T02:08:06;2.60;99.90
47350;DHT22;33088;51.982;5.872;2022-12-07T02:10:32;2.60;99.90
47350;DHT22;33088;51.982;5.872;2022-12-07T02:13:12;2.60;99.90
47350;DHT22;33088;51.982;5.872;2022-12-07T02:18:24;2.50;99.90
47350;DHT22;33088;51.982;5.872;2022-12-07T02:29:22;2.50;99.90
47350;DHT22;33088;51.982;5.872;2022-12-07T02:32:16;2.60;99.90
47350;DHT22;33088;51.982;5.872;2022-12-07T02:37:51;2.50;99.90
47350;DHT22;33088;51.982;5.872;2022-12-07T02:40:22;2.50;99.90
47350;DHT22;33088;51.982;5.872;2022-12-07T02:42:55;2.50;99.90
47350;DHT22;33088;51.982;5.872;2022-12-07T02:45:25;2.50;99.90
47350;DHT22;33088;51.982;5.872;2022-12-07T02:47:56;2.40;99.90
47350;DHT22;33088;51.982;5.872;2022-12-07T02:50:24;2.40;99.90
47350;DHT22;33088;51.982;5.872;2022-12-07T02:52:49;2.40;99.90
47350;DHT22;33088;51.982;5.872;2022-12-07T02:55:17;2.40;99.90
47350;DHT22;33088;51.982;5.872;2022-12-07T02:58:25;2.40;99.90
47350;DHT22;33088;51.982;5.872;2022-12-07T03:01:04;2.40;99.90
47350;DHT22;33088;51.982;5.872;2022-12-07T03:03:37;2.50;99.90
47350;DHT22;33088;51.982;5.872;2022-12-07T03:09:05;2.40;99.90
47350;DHT22;33088;51.982;5.872;2022-12-07T03:11:44;2.40;99.90
47350;DHT22;33088;51.982;5.872;2022-12-07T03:14:28;2.40;99.90
47350;DHT22;33088;51.982;5.872;2022-12-07T03:16:59;2.50;99.90
47350;DHT22;33088;51.982;5.872;2022-12-07T03:19:27;2.50;99.90
47350;DHT22;33088;51.982;5.872;2022-12-07T03:21:57;2.50;99.90
47350;DHT22;33088;51.982;5.872;2022-12-07T03:24:29;2.50;99.90
47350;DHT22;33088;51.982;5.872;2022-12-07T03:27:06;2.60;99.90
47350;DHT22;33088;51.982;5.872;2022-12-07T03:30:04;2.60;99.90
47350;DHT22;33088;51.982;5.872;2022-12-07T03:32:43;2.60;99.90
47350;DHT22;33088;51.982;5.872;2022-12-07T03:35:35;2.70;99.90
47350;DHT22;33088;51.982;5.872;2022-12-07T03:38:19;2.70;99.90
47350;DHT22;33088;51.982;5.872;2022-12-07T03:40:57;2.70;99.90
47350;DHT22;33088;51.982;5.872;2022-12-07T03:43:26;2.80;99.90
47350;DHT22;33088;51.982;5.872;2022-12-07T03:46:16;2.80;99.90
47350;DHT22;33088;51.982;5.872;2022-12-07T03:48:51;2.80;99.90
47350;DHT22;33088;51.982;5.872;2022-12-07T03:54:19;2.90;99.90
47350;DHT22;33088;51.982;5.872;2022-12-07T03:56:47;2.90;99.90
47350;DHT22;33088;51.982;5.872;2022-12-07T03:59:14;2.80;99.90
47350;DHT22;33088;51.982;5.872;2022-12-07T04:01:48;2.80;99.90
47350;DHT22;33088;51.982;5.872;2022-12-07T04:04:17;2.80;99.90
47350;DHT22;33088;51.982;5.872;2022-12-07T04:06:42;2.70;99.90
47350;DHT22;33088;51.982;5.872;2022-12-07T04:09:08;2.80;99.90
47350;DHT22;33088;51.982;5.872;2022-12-07T04:11:33;2.70;99.90
47350;DHT22;33088;51.982;5.872;2022-12-07T04:13:59;2.70;99.90
47350;DHT22;33088;51.982;5.872;2022-12-07T04:16:44;2.70;99.90
47350;DHT22;33088;51.982;5.872;2022-12-07T04:19:10;2.70;99.90
47350;DHT22;33088;51.982;5.872;2022-12-07T04:21:36;2.70;99.90
47350;DHT22;33088;51.982;5.872;2022-12-07T04:24:04;2.60;99.90
47350;DHT22;33088;51.982;5.872;2022-12-07T04:26:30;2.60;99.90
47350;DHT22;33088;51.982;5.872;2022-12-07T04:28:55;2.60;99.90
47350;DHT22;33088;51.982;5.872;2022-12-07T04:31:21;2.60;99.90
47350;DHT22;33088;51.982;5.872;2022-12-07T04:33:47;2.60;99.90
47350;DHT22;33088;51.982;5.872;2022-12-07T04:36:12;2.60;99.90
47350;DHT22;33088;51.982;5.872;2022-12-07T04:38:38;2.60;99.90
47350;DHT22;33088;51.982;5.872;2022-12-07T04:41:08;2.70;99.90
47350;DHT22;33088;51.982;5.872;2022-12-07T04:43:34;2.70;99.90
47350;DHT22;33088;51.982;5.872;2022-12-07T04:46:00;2.70;99.90
47350;DHT22;33088;51.982;5.872;2022-12-07T04:48:26;2.80;99.90
47350;DHT22;33088;51.982;5.872;2022-12-07T04:50:52;2.80;99.90
47350;DHT22;33088;51.982;5.872;2022-12-07T04:53:18;2.80;99.90
47350;DHT22;33088;51.982;5.872;2022-12-07T04:55:45;2.90;99.90
47350;DHT22;33088;51.982;5.872;2022-12-07T04:58:12;2.90;99.90
47350;DHT22;33088;51.982;5.872;2022-12-07T05:00:37;2.90;99.90
47350;DHT22;33088;51.982;5.872;2022-12-07T05:03:03;2.80;99.90
47350;DHT22;33088;51.982;5.872;2022-12-07T05:05:29;2.80;99.90
47350;DHT22;33088;51.982;5.872;2022-12-07T05:07:54;2.70;99.90
47350;DHT22;33088;51.982;5.872;2022-12-07T05:10:20;2.70;99.90
47350;DHT22;33088;51.982;5.872;2022-12-07T05:12:46;2.70;99.90
47350;DHT22;33088;51.982;5.872;2022-12-07T05:15:13;2.60;99.90
47350;DHT22;33088;51.982;5.872;2022-12-07T05:17:40;2.80;99.90
47350;DHT22;33088;51.982;5.872;2022-12-07T05:20:06;2.60;99.90
47350;DHT22;33088;51.982;5.872;2022-12-07T05:22:32;2.60;99.90
47350;DHT22;33088;51.982;5.872;2022-12-07T05:24:58;2.50;99.90
47350;DHT22;33088;51.982;5.872;2022-12-07T05:27:23;2.50;99.90
47350;DHT22;33088;51.982;5.872;2022-12-07T05:29:52;2.40;99.90
47350;DHT22;33088;51.982;5.872;2022-12-07T05:32:18;2.40;99.90
47350;DHT22;33088;51.982;5.872;2022-12-07T05:34:44;2.40;99.90
47350;DHT22;33088;51.982;5.872;2022-12-07T05:37:09;2.50;99.90
47350;DHT22;33088;51.982;5.872;2022-12-07T05:39:35;2.50;99.90
47350;DHT22;33088;51.982;5.872;2022-12-07T05:42:01;2.60;99.90
47350;DHT22;33088;51.982;5.872;2022-12-07T05:44:39;2.40;99.90
47350;DHT22;33088;51.982;5.872;2022-12-07T05:47:05;2.60;99.90
47350;DHT22;33088;51.982;5.872;2022-12-07T05:49:31;2.60;99.90
47350;DHT22;33088;51.982;5.872;2022-12-07T05:51:57;2.50;99.90
47350;DHT22;33088;51.982;5.872;2022-12-07T05:54:22;2.50;99.90
47350;DHT22;33088;51.982;5.872;2022-12-07T05:56:48;2.50;99.90
47350;DHT22;33088;51.982;5.872;2022-12-07T05:59:14;2.40;99.90
47350;DHT22;33088;51.982;5.872;2022-12-07T06:04:30;2.20;99.90
47350;DHT22;33088;51.982;5.872;2022-12-07T06:06:57;2.10;99.90
47350;DHT22;33088;51.982;5.872;2022-12-07T06:09:24;2.10;99.90
47350;DHT22;33088;51.982;5.872;2022-12-07T06:11:50;2.00;99.90
47350;DHT22;33088;51.982;5.872;2022-12-07T06:14:34;2.00;99.90
47350;DHT22;33088;51.982;5.872;2022-12-07T06:17:03;2.00;99.90
47350;DHT22;33088;51.982;5.872;2022-12-07T06:19:28;1.90;99.90
47350;DHT22;33088;51.982;5.872;2022-12-07T06:21:54;1.90;99.90
47350;DHT22;33088;51.982;5.872;2022-12-07T06:24:20;1.90;99.90
47350;DHT22;33088;51.982;5.872;2022-12-07T06:26:46;1.80;99.90
47350;DHT22;33088;51.982;5.872;2022-12-07T06:29:13;1.80;99.90
47350;DHT22;33088;51.982;5.872;2022-12-07T06:31:39;1.80;99.90
47350;DHT22;33088;51.982;5.872;2022-12-07T06:34:08;1.80;99.90
47350;DHT22;33088;51.982;5.872;2022-12-07T06:36:34;1.80;99.90
47350;DHT22;33088;51.982;5.872;2022-12-07T06:39:00;1.80;99.90
47350;DHT22;33088;51.982;5.872;2022-12-07T06:41:26;1.90;99.90
47350;DHT22;33088;51.982;5.872;2022-12-07T06:43:51;1.80;99.90
47350;DHT22;33088;51.982;5.872;2022-12-07T06:46:17;1.90;99.90
47350;DHT22;33088;51.982;5.872;2022-12-07T06:48:43;1.80;99.90
47350;DHT22;33088;51.982;5.872;2022-12-07T06:51:09;1.80;99.90
47350;DHT22;33088;51.982;5.872;2022-12-07T06:53:36;1.80;99.90
47350;DHT22;33088;51.982;5.872;2022-12-07T06:56:03;1.80;99.90
47350;DHT22;33088;51.982;5.872;2022-12-07T06:58:29;1.80;99.90
47350;DHT22;33088;51.982;5.872;2022-12-07T07:00:55;1.80;99.90
47350;DHT22;33088;51.982;5.872;2022-12-07T07:03:20;1.90;99.90
47350;DHT22;33088;51.982;5.872;2022-12-07T07:05:46;1.90;99.90
47350;DHT22;33088;51.982;5.872;2022-12-07T07:08:12;2.00;99.90
47350;DHT22;33088;51.982;5.872;2022-12-07T07:10:38;2.00;99.90
47350;DHT22;33088;51.982;5.872;2022-12-07T07:13:04;2.10;99.90
47350;DHT22;33088;51.982;5.872;2022-12-07T07:15:31;2.10;99.90
47350;DHT22;33088;51.982;5.872;2022-12-07T07:17:57;2.10;99.90
47350;DHT22;33088;51.982;5.872;2022-12-07T07:20:23;2.00;99.90
47350;DHT22;33088;51.982;5.872;2022-12-07T07:22:49;2.00;99.90
47350;DHT22;33088;51.982;5.872;2022-12-07T07:25:15;2.00;99.90
47350;DHT22;33088;51.982;5.872;2022-12-07T07:27:40;2.20;99.90
47350;DHT22;33088;51.982;5.872;2022-12-07T07:30:07;2.10;99.90
47350;DHT22;33088;51.982;5.872;2022-12-07T07:32:33;2.10;99.90
47350;DHT22;33088;51.982;5.872;2022-12-07T07:34:59;2.00;99.90
47350;DHT22;33088;51.982;5.872;2022-12-07T07:37:26;2.00;99.90
47350;DHT22;33088;51.982;5.872;2022-12-07T07:39:51;2.00;99.90
47350;DHT22;33088;51.982;5.872;2022-12-07T07:42:17;2.00;99.90
47350;DHT22;33088;51.982;5.872;2022-12-07T07:44:43;2.00;99.90
47350;DHT22;33088;51.982;5.872;2022-12-07T07:47:09;2.00;99.90
47350;DHT22;33088;51.982;5.872;2022-12-07T07:49:34;2.00;99.90
47350;DHT22;33088;51.982;5.872;2022-12-07T07:52:00;1.90;99.90
47350;DHT22;33088;51.982;5.872;2022-12-07T07:54:26;1.90;99.90
47350;DHT22;33088;51.982;5.872;2022-12-07T07:56:52;2.10;99.90
47350;DHT22;33088;51.982;5.872;2022-12-07T07:59:18;1.90;99.90
47350;DHT22;33088;51.982;5.872;2022-12-07T08:01:44;1.90;99.90
47350;DHT22;33088;51.982;5.872;2022-12-07T08:04:10;1.90;99.90
47350;DHT22;33088;51.982;5.872;2022-12-07T08:06:35;1.90;99.90
47350;DHT22;33088;51.982;5.872;2022-12-07T08:09:02;1.90;99.90
47350;DHT22;33088;51.982;5.872;2022-12-07T08:11:28;1.90;99.90
47350;DHT22;33088;51.982;5.872;2022-12-07T08:13:54;2.00;99.90
47350;DHT22;33088;51.982;5.872;2022-12-07T08:16:19;2.00;99.90
47350;DHT22;33088;51.982;5.872;2022-12-07T08:18:45;2.00;99.90
47350;DHT22;33088;51.982;5.872;2022-12-07T08:21:13;2.10;99.90
47350;DHT22;33088;51.982;5.872;2022-12-07T08:23:38;2.20;99.90
47350;DHT22;33088;51.982;5.872;2022-12-07T08:26:09;2.40;99.90
47350;DHT22;33088;51.982;5.872;2022-12-07T08:28:35;2.50;99.90
47350;DHT22;33088;51.982;5.872;2022-12-07T08:31:07;2.60;99.90
47350;DHT22;33088;51.982;5.872;2022-12-07T08:33:33;2.70;99.90
47350;DHT22;33088;51.982;5.872;2022-12-07T08:36:07;2.80;99.90
47350;DHT22;33088;51.982;5.872;2022-12-07T08:38:34;2.80;99.90
47350;DHT22;33088;51.982;5.872;2022-12-07T08:41:00;2.90;99.90
47350;DHT22;33088;51.982;5.872;2022-12-07T08:43:26;3.00;99.90
47350;DHT22;33088;51.982;5.872;2022-12-07T08:46:09;3.00;99.90
47350;DHT22;33088;51.982;5.872;2022-12-07T08:51:16;3.00;99.90
47350;DHT22;33088;51.982;5.872;2022-12-07T08:53:42;2.90;99.90
47350;DHT22;33088;51.982;5.872;2022-12-07T08:56:09;2.90;99.90
47350;DHT22;33088;51.982;5.872;2022-12-07T08:58:36;2.90;99.90
47350;DHT22;33088;51.982;5.872;2022-12-07T09:01:02;2.90;99.90
47350;DHT22;33088;51.982;5.872;2022-12-07T09:03:28;3.00;99.90
47350;DHT22;33088;51.982;5.872;2022-12-07T09:05:54;3.00;99.90
47350;DHT22;33088;51.982;5.872;2022-12-07T09:08:21;3.00;99.90
47350;DHT22;33088;51.982;5.872;2022-12-07T09:10:48;3.00;99.90
47350;DHT22;33088;51.982;5.872;2022-12-07T09:13:13;3.00;99.90
47350;DHT22;33088;51.982;5.872;2022-12-07T09:15:39;3.10;99.90
47350;DHT22;33088;51.982;5.872;2022-12-07T09:18:05;3.10;99.90
47350;DHT22;33088;51.982;5.872;2022-12-07T09:20:30;3.20;99.90
47350;DHT22;33088;51.982;5.872;2022-12-07T09:22:56;3.20;99.90
47350;DHT22;33088;51.982;5.872;2022-12-07T09:25:22;3.30;99.90
47350;DHT22;33088;51.982;5.872;2022-12-07T09:27:48;3.30;99.90
47350;DHT22;33088;51.982;5.872;2022-12-07T09:30:13;3.40;99.90
47350;DHT22;33088;51.982;5.872;2022-12-07T09:32:39;3.60;99.90
47350;DHT22;33088;51.982;5.872;2022-12-07T09:35:07;3.70;99.90
47350;DHT22;33088;51.982;5.872;2022-12-07T09:37:33;3.70;99.90
47350;DHT22;33088;51.982;5.872;2022-12-07T09:40:02;3.80;99.90
47350;DHT22;33088;51.982;5.872;2022-12-07T09:42:36;3.80;99.90
47350;DHT22;33088;51.982;5.872;2022-12-07T09:45:05;3.90;99.90
47350;DHT22;33088;51.982;5.872;2022-12-07T09:47:32;4.00;99.90
47350;DHT22;33088;51.982;5.872;2022-12-07T09:50:12;4.00;99.90
47350;DHT22;33088;51.982;5.872;2022-12-07T09:52:38;4.10;99.90
47350;DHT22;33088;51.982;5.872;2022-12-07T09:55:12;4.20;99.90
47350;DHT22;33088;51.982;5.872;2022-12-07T09:57:38;4.10;99.90
47350;DHT22;33088;51.982;5.872;2022-12-07T10:00:12;4.10;99.90
47350;DHT22;33088;51.982;5.872;2022-12-07T10:02:59;4.10;99.90
47350;DHT22;33088;51.982;5.872;2022-12-07T10:05:31;4.10;99.90
47350;DHT22;33088;51.982;5.872;2022-12-07T10:07:59;4.10;99.90
47350;DHT22;33088;51.982;5.872;2022-12-07T10:10:30;4.10;99.90
47350;DHT22;33088;51.982;5.872;2022-12-07T10:13:07;4.00;99.90
47350;DHT22;33088;51.982;5.872;2022-12-07T10:15:53;4.00;99.90
47350;DHT22;33088;51.982;5.872;2022-12-07T10:18:29;4.00;99.90
47350;DHT22;33088;51.982;5.872;2022-12-07T10:23:35;4.00;99.90
47350;DHT22;33088;51.982;5.872;2022-12-07T10:29:24;4.10;99.90
47350;DHT22;33088;51.982;5.872;2022-12-07T10:32:03;4.10;99.90
47350;DHT22;33088;51.982;5.872;2022-12-07T10:34:32;4.10;99.90
47350;DHT22;33088;51.982;5.872;2022-12-07T10:37:34;4.10;99.90
47350;DHT22;33088;51.982;5.872;2022-12-07T10:40:35;4.10;99.90
47350;DHT22;33088;51.982;5.872;2022-12-07T10:45:28;4.20;99.90
47350;DHT22;33088;51.982;5.872;2022-12-07T10:58:57;5.00;99.90
47350;DHT22;33088;51.982;5.872;2022-12-07T11:18:24;4.90;99.90
47350;DHT22;33088;51.982;5.872;2022-12-07T11:32:28;5.10;99.90
47350;DHT22;33088;51.982;5.872;2022-12-07T11:37:40;5.10;99.90
47350;DHT22;33088;51.982;5.872;2022-12-07T11:40:21;5.10;99.90
47350;DHT22;33088;51.982;5.872;2022-12-07T11:43:17;5.20;99.90
47350;DHT22;33088;51.982;5.872;2022-12-07T11:45:47;5.40;99.90
47350;DHT22;33088;51.982;5.872;2022-12-07T11:48:37;5.40;99.90
47350;DHT22;33088;51.982;5.872;2022-12-07T11:51:07;5.50;99.90
47350;DHT22;33088;51.982;5.872;2022-12-07T11:53:38;5.60;99.90
47350;DHT22;33088;51.982;5.872;2022-12-07T11:56:12;5.70;99.90
47350;DHT22;33088;51.982;5.872;2022-12-07T12:01:24;5.80;99.90
47350;DHT22;33088;51.982;5.872;2022-12-07T12:06:50;5.80;99.90
47350;DHT22;33088;51.982;5.872;2022-12-07T12:09:24;5.70;99.90
47350;DHT22;33088;51.982;5.872;2022-12-07T12:15:08;5.40;99.90
47350;DHT22;33088;51.982;5.872;2022-12-07T12:20:49;5.20;99.90
47350;DHT22;33088;51.982;5.872;2022-12-07T12:26:05;5.20;99.90
47350;DHT22;33088;51.982;5.872;2022-12-07T12:28:41;5.30;99.90
47350;DHT22;33088;51.982;5.872;2022-12-07T12:31:15;5.40;99.90
47350;DHT22;33088;51.982;5.872;2022-12-07T12:33:50;5.50;99.90
47350;DHT22;33088;51.982;5.872;2022-12-07T12:36:19;5.60;99.90
47350;DHT22;33088;51.982;5.872;2022-12-07T12:51:48;6.40;99.90
47350;DHT22;33088;51.982;5.872;2022-12-07T12:59:42;6.40;99.90
47350;DHT22;33088;51.982;5.872;2022-12-07T13:02:27;6.50;99.90
47350;DHT22;33088;51.982;5.872;2022-12-07T13:13:01;6.30;99.90
47350;DHT22;33088;51.982;5.872;2022-12-07T13:15:50;6.30;99.90
47350;DHT22;33088;51.982;5.872;2022-12-07T13:18:35;6.50;99.90
47350;DHT22;33088;51.982;5.872;2022-12-07T13:26:18;6.50;99.90
47350;DHT22;33088;51.982;5.872;2022-12-07T13:31:32;6.50;99.90
47350;DHT22;33088;51.982;5.872;2022-12-07T13:33:59;6.60;99.90
47350;DHT22;33088;51.982;5.872;2022-12-07T13:36:28;6.60;99.90
47350;DHT22;33088;51.982;5.872;2022-12-07T13:39:11;6.50;99.90
47350;DHT22;33088;51.982;5.872;2022-12-07T13:41:42;6.40;99.90
47350;DHT22;33088;51.982;5.872;2022-12-07T13:44:16;6.40;99.90
47350;DHT22;33088;51.982;5.872;2022-12-07T13:49:20;6.40;99.90
47350;DHT22;33088;51.982;5.872;2022-12-07T13:51:47;6.50;99.90
47350;DHT22;33088;51.982;5.872;2022-12-07T13:54:13;6.50;99.90
47350;DHT22;33088;51.982;5.872;2022-12-07T13:56:40;6.60;99.90
47350;DHT22;33088;51.982;5.872;2022-12-07T13:59:16;6.70;99.90
47350;DHT22;33088;51.982;5.872;2022-12-07T14:01:41;6.80;99.90
47350;DHT22;33088;51.982;5.872;2022-12-07T14:04:28;6.90;99.90
47350;DHT22;33088;51.982;5.872;2022-12-07T14:06:54;6.80;99.90
47350;DHT22;33088;51.982;5.872;2022-12-07T14:09:23;6.60;99.90
47350;DHT22;33088;51.982;5.872;2022-12-07T14:11:50;6.50;99.90
47350;DHT22;33088;51.982;5.872;2022-12-07T14:14:28;6.40;99.90
47350;DHT22;33088;51.982;5.872;2022-12-07T14:17:38;6.20;99.90
47350;DHT22;33088;51.982;5.872;2022-12-07T14:19:53;6.20;99.90
47350;DHT22;33088;51.982;5.872;2022-12-07T14:22:29;5.80;99.90
47350;DHT22;33088;51.982;5.872;2022-12-07T14:25:18;5.40;99.90
47350;DHT22;33088;51.982;5.872;2022-12-07T14:27:59;5.10;99.90
47350;DHT22;33088;51.982;5.872;2022-12-07T14:30:30;5.10;99.90
47350;DHT22;33088;51.982;5.872;2022-12-07T14:32:59;5.00;99.90
47350;DHT22;33088;51.982;5.872;2022-12-07T14:35:26;5.00;99.90
47350;DHT22;33088;51.982;5.872;2022-12-07T14:37:52;4.90;99.90
47350;DHT22;33088;51.982;5.872;2022-12-07T14:40:28;4.90;99.90
47350;DHT22;33088;51.982;5.872;2022-12-07T14:43:00;5.00;99.90
47350;DHT22;33088;51.982;5.872;2022-12-07T14:45:27;5.10;99.90
47350;DHT22;33088;51.982;5.872;2022-12-07T14:47:53;5.10;99.90
47350;DHT22;33088;51.982;5.872;2022-12-07T14:50:20;5.10;99.90
47350;DHT22;33088;51.982;5.872;2022-12-07T14:52:50;5.00;99.90
47350;DHT22;33088;51.982;5.872;2022-12-07T14:55:28;5.00;99.90
47350;DHT22;33088;51.982;5.872;2022-12-07T14:57:55;5.10;99.90
47350;DHT22;33088;51.982;5.872;2022-12-07T15:00:23;5.10;99.90
47350;DHT22;33088;51.982;5.872;2022-12-07T15:02:50;5.10;99.90
47350;DHT22;33088;51.982;5.872;2022-12-07T15:05:16;5.20;99.90
47350;DHT22;33088;51.982;5.872;2022-12-07T15:07:43;5.20;99.90
47350;DHT22;33088;51.982;5.872;2022-12-07T15:10:27;5.20;99.90
47350;DHT22;33088;51.982;5.872;2022-12-07T15:12:56;5.20;99.90
47350;DHT22;33088;51.982;5.872;2022-12-07T15:15:45;5.20;99.90
47350;DHT22;33088;51.982;5.872;2022-12-07T15:18:11;5.20;99.90
47350;DHT22;33088;51.982;5.872;2022-12-07T15:20:37;5.20;99.90
47350;DHT22;33088;51.982;5.872;2022-12-07T15:23:03;5.10;99.90
47350;DHT22;33088;51.982;5.872;2022-12-07T15:25:28;5.10;99.90
47350;DHT22;33088;51.982;5.872;2022-12-07T15:27:54;5.10;99.90
47350;DHT22;33088;51.982;5.872;2022-12-07T15:30:20;5.10;99.90
47350;DHT22;33088;51.982;5.872;2022-12-07T15:32:52;5.10;99.90
47350;DHT22;33088;51.982;5.872;2022-12-07T15:35:18;5.00;99.90
47350;DHT22;33088;51.982;5.872;2022-12-07T15:37:44;5.10;99.90
47350;DHT22;33088;51.982;5.872;2022-12-07T15:40:11;5.00;99.90
47350;DHT22;33088;51.982;5.872;2022-12-07T15:42:37;5.00;99.90
47350;DHT22;33088;51.982;5.872;2022-12-07T15:45:04;5.00;99.90
47350;DHT22;33088;51.982;5.872;2022-12-07T15:47:35;4.90;99.90
47350;DHT22;33088;51.982;5.872;2022-12-07T15:50:04;4.90;99.90
47350;DHT22;33088;51.982;5.872;2022-12-07T15:52:30;4.90;99.90
47350;DHT22;33088;51.982;5.872;2022-12-07T15:54:56;4.80;99.90
47350;DHT22;33088;51.982;5.872;2022-12-07T15:57:22;4.80;99.90
47350;DHT22;33088;51.982;5.872;2022-12-07T15:59:47;4.90;99.90
47350;DHT22;33088;51.982;5.872;2022-12-07T16:02:13;4.90;99.90
47350;DHT22;33088;51.982;5.872;2022-12-07T16:04:39;4.90;99.90
47350;DHT22;33088;51.982;5.872;2022-12-07T16:07:05;4.90;99.90
47350;DHT22;33088;51.982;5.872;2022-12-07T16:09:31;4.90;99.90
47350;DHT22;33088;51.982;5.872;2022-12-07T16:11:57;4.80;99.90
47350;DHT22;33088;51.982;5.872;2022-12-07T16:14:22;4.80;99.90
47350;DHT22;33088;51.982;5.872;2022-12-07T16:16:48;4.80;99.90
47350;DHT22;33088;51.982;5.872;2022-12-07T16:19:14;4.80;99.90
47350;DHT22;33088;51.982;5.872;2022-12-07T16:21:40;4.80;99.90
47350;DHT22;33088;51.982;5.872;2022-12-07T16:24:06;4.80;99.90
47350;DHT22;33088;51.982;5.872;2022-12-07T16:26:32;4.80;99.90
47350;DHT22;33088;51.982;5.872;2022-12-07T16:28:58;4.80;99.90
47350;DHT22;33088;51.982;5.872;2022-12-07T16:31:25;4.80;99.90
47350;DHT22;33088;51.982;5.872;2022-12-07T16:33:56;4.70;99.90
47350;DHT22;33088;51.982;5.872;2022-12-07T16:36:22;4.70;99.90
47350;DHT22;33088;51.982;5.872;2022-12-07T16:38:50;4.60;99.90
47350;DHT22;33088;51.982;5.872;2022-12-07T16:41:15;4.60;99.90
47350;DHT22;33088;51.982;5.872;2022-12-07T16:43:41;4.50;99.90
47350;DHT22;33088;51.982;5.872;2022-12-07T16:46:07;4.50;99.90
47350;DHT22;33088;51.982;5.872;2022-12-07T16:48:36;4.50;99.90
47350;DHT22;33088;51.982;5.872;2022-12-07T16:51:06;4.50;99.90
47350;DHT22;33088;51.982;5.872;2022-12-07T16:53:35;4.40;99.90
47350;DHT22;33088;51.982;5.872;2022-12-07T16:56:00;4.40;99.90
47350;DHT22;33088;51.982;5.872;2022-12-07T16:58:26;4.40;99.90
47350;DHT22;33088;51.982;5.872;2022-12-07T17:00:52;4.40;99.90
47350;DHT22;33088;51.982;5.872;2022-12-07T17:03:18;4.30;99.90
47350;DHT22;33088;51.982;5.872;2022-12-07T17:05:45;4.30;99.90
47350;DHT22;33088;51.982;5.872;2022-12-07T17:08:11;4.30;99.90
47350;DHT22;33088;51.982;5.872;2022-12-07T17:10:39;4.30;99.90
47350;DHT22;33088;51.982;5.872;2022-12-07T17:13:06;4.30;99.90
47350;DHT22;33088;51.982;5.872;2022-12-07T17:16:00;4.30;99.90
47350;DHT22;33088;51.982;5.872;2022-12-07T17:18:31;4.30;99.90
47350;DHT22;33088;51.982;5.872;2022-12-07T17:21:08;4.30;99.90
47350;DHT22;33088;51.982;5.872;2022-12-07T17:23:34;4.30;99.90
47350;DHT22;33088;51.982;5.872;2022-12-07T17:26:13;4.30;99.90
47350;DHT22;33088;51.982;5.872;2022-12-07T17:28:39;4.20;99.90
47350;DHT22;33088;51.982;5.872;2022-12-07T17:31:07;4.20;99.90
47350;DHT22;33088;51.982;5.872;2022-12-07T17:33:33;4.20;99.90
47350;DHT22;33088;51.982;5.872;2022-12-07T17:36:00;4.20;99.90
47350;DHT22;33088;51.982;5.872;2022-12-07T17:38:27;4.10;99.90
47350;DHT22;33088;51.982;5.872;2022-12-07T17:40:53;4.10;99.90
47350;DHT22;33088;51.982;5.872;2022-12-07T17:43:19;4.20;99.90
47350;DHT22;33088;51.982;5.872;2022-12-07T17:45:45;4.10;99.90
47350;DHT22;33088;51.982;5.872;2022-12-07T17:48:11;4.10;99.90
47350;DHT22;33088;51.982;5.872;2022-12-07T17:50:38;4.00;99.90
47350;DHT22;33088;51.982;5.872;2022-12-07T17:53:22;4.00;99.90
47350;DHT22;33088;51.982;5.872;2022-12-07T17:55:52;4.00;99.90
47350;DHT22;33088;51.982;5.872;2022-12-07T17:58:18;4.00;99.90
47350;DHT22;33088;51.982;5.872;2022-12-07T18:00:43;4.00;99.90
47350;DHT22;33088;51.982;5.872;2022-12-07T18:03:09;4.00;99.90
47350;DHT22;33088;51.982;5.872;2022-12-07T18:05:36;3.90;99.90
47350;DHT22;33088;51.982;5.872;2022-12-07T18:08:03;3.90;99.90
47350;DHT22;33088;51.982;5.872;2022-12-07T18:10:29;3.90;99.90